Teyateyaneng, Lesotho
Current Conditions -  °F | °C
As of 4:00 AM on Tuesday 23 Dec 2014 (Local Time) from FABL Reporting Station
NA  
Wind Chill: 18°   Ceiling: NA
Heat Index: 18°   Visibility: 6mi
Dew Point: 12°   Wind: 3mph
Humidity: 68%   Direction: 70°ENE
Pressure: 30.06"   Gusts: NA
Location:  29.15°S, 27.74°E
Report Text: FABL 230200Z AUTO 07003KT 9999 ////// 18/12 Q1018
Loading
Personal Weather Stations






























Interactive Weather Map New forecast layout! Learn more

10-Day Weather Forecast

Advertisements
Track Severe Weather on mobile